createdAt,value
2022-11-02T00:00:15.468Z,23.58
2022-11-02T00:06:17.873Z,23.35
2022-11-02T00:12:20.332Z,23.40
2022-11-02T00:18:22.485Z,22.55
2022-11-02T00:24:24.444Z,24.50
2022-11-02T00:30:26.554Z,23.30
2022-11-02T00:36:29.205Z,22.27
2022-11-02T00:48:33.868Z,21.30
2022-11-02T00:54:36.195Z,20.75
2022-11-02T01:00:39.249Z,21.27
2022-11-02T01:06:43.053Z,20.92
2022-11-02T01:12:45.246Z,20.27
2022-11-02T01:18:47.774Z,21.40
2022-11-02T01:24:49.880Z,23.08
2022-11-02T01:30:52.197Z,20.33
2022-11-02T01:36:54.620Z,20.33
2022-11-02T01:42:56.594Z,20.58
2022-11-02T01:49:28.045Z,21.90
2022-11-02T01:55:32.849Z,20.27
2022-11-02T02:01:35.369Z,20.25
2022-11-02T02:07:39.803Z,21.42
2022-11-02T02:13:41.837Z,23.02
2022-11-02T02:19:57.910Z,21.57
2022-11-02T02:26:32.279Z,24.55
2022-11-02T02:33:03.540Z,22.52
2022-11-02T02:39:09.016Z,24.33
2022-11-02T02:45:16.895Z,22.67
2022-11-02T02:51:32.510Z,23.60
2022-11-02T02:57:36.121Z,23.73
2022-11-02T03:03:42.362Z,22.95
2022-11-02T03:10:00.480Z,24.20
2022-11-02T03:16:34.983Z,22.48
2022-11-02T03:22:46.587Z,21.88
2022-11-02T03:29:04.995Z,22.42
2022-11-02T03:35:17.372Z,21.77
2022-11-02T03:41:23.460Z,23.00
2022-11-02T03:47:26.865Z,22.42
2022-11-02T03:53:29.162Z,20.88
2022-11-02T03:59:32.726Z,23.63
2022-11-02T04:05:36.948Z,23.88
2022-11-02T04:12:11.970Z,22.45
2022-11-02T04:18:49.436Z,23.20
2022-11-02T04:25:10.950Z,21.95
2022-11-02T04:31:14.557Z,23.45
2022-11-02T04:37:35.486Z,22.90
2022-11-02T04:43:37.837Z,22.70
2022-11-02T04:49:40.242Z,22.60
2022-11-02T04:55:47.190Z,22.70
2022-11-02T05:01:49.921Z,24.52
2022-11-02T05:07:52.257Z,22.88
2022-11-02T05:13:54.347Z,22.30
2022-11-02T05:19:56.563Z,21.73
2022-11-02T05:26:00.652Z,23.23
2022-11-02T05:32:04.554Z,24.50
2022-11-02T05:44:09.290Z,24.65
2022-11-02T05:50:14.235Z,24.20
2022-11-02T05:56:19.524Z,23.83
2022-11-02T06:02:25.886Z,25.27
2022-11-02T06:08:28.651Z,22.03
2022-11-02T06:20:32.710Z,22.65
2022-11-02T06:26:34.663Z,22.73
2022-11-02T06:32:36.582Z,22.17
2022-11-02T06:38:38.933Z,19.23
2022-11-02T06:44:40.905Z,21.10
2022-11-02T06:50:42.910Z,19.80
2022-11-02T06:56:44.990Z,19.85
2022-11-02T07:02:47.552Z,19.30
2022-11-02T07:14:51.708Z,23.27
2022-11-02T07:20:53.827Z,20.77
2022-11-02T07:26:55.922Z,20.25
2022-11-02T07:32:58.490Z,19.92
2022-11-02T07:39:00.587Z,21.30
2022-11-02T07:45:02.763Z,18.73
2022-11-02T07:51:05.950Z,18.00
2022-11-02T07:57:08.050Z,19.67
2022-11-02T08:03:12.183Z,16.83
2022-11-02T08:09:15.794Z,16.42
2022-11-02T08:15:17.785Z,16.00
2022-11-02T08:21:20.240Z,19.42
2022-11-02T08:27:22.145Z,16.13
2022-11-02T08:39:26.467Z,17.73
2022-11-02T08:45:35.046Z,15.75
2022-11-02T08:51:45.985Z,15.98
2022-11-02T08:57:53.427Z,16.73
2022-11-02T09:03:55.386Z,15.90
2022-11-02T09:09:57.386Z,14.38
2022-11-02T09:16:00.137Z,13.27
2022-11-02T09:22:05.653Z,15.50
2022-11-02T09:28:09.594Z,15.05
2022-11-02T09:34:11.850Z,15.90
2022-11-02T09:40:17.939Z,17.55
2022-11-02T09:46:28.262Z,16.45
2022-11-02T09:52:38.645Z,17.05
2022-11-02T09:58:41.207Z,13.95
2022-11-02T10:05:04.568Z,15.27
2022-11-02T10:11:12.464Z,15.18
2022-11-02T10:17:19.075Z,13.40
2022-11-02T10:23:46.778Z,14.00
2022-11-02T10:29:57.416Z,13.75
2022-11-02T10:36:41.603Z,14.50
2022-11-02T10:42:52.482Z,13.75
2022-11-02T10:49:09.785Z,14.57
2022-11-02T10:55:26.568Z,17.98
2022-11-02T11:01:30.616Z,13.98
2022-11-02T11:07:32.933Z,15.20
2022-11-02T11:20:02.711Z,13.60
2022-11-02T11:26:27.541Z,13.88
2022-11-02T11:32:30.890Z,15.70
2022-11-02T11:38:34.260Z,15.18
2022-11-02T11:44:36.463Z,18.25
2022-11-02T11:50:50.071Z,13.38
2022-11-02T11:56:54.955Z,13.57
2022-11-02T12:03:11.840Z,14.57
2022-11-02T12:16:15.775Z,15.02
2022-11-02T12:22:29.644Z,13.60
2022-11-02T12:28:49.664Z,15.13
2022-11-02T12:35:29.027Z,15.18
2022-11-02T12:41:52.937Z,13.85
2022-11-02T12:48:00.400Z,13.93
2022-11-02T12:54:16.032Z,12.77
2022-11-02T13:00:22.661Z,13.95
2022-11-02T13:06:31.019Z,12.82
2022-11-02T13:12:37.297Z,13.38
2022-11-02T13:18:51.405Z,14.68
2022-11-02T13:25:02.325Z,15.95
2022-11-02T13:31:12.767Z,15.80
2022-11-02T13:37:19.506Z,14.00
2022-11-02T13:44:11.577Z,15.32
2022-11-02T13:50:18.937Z,15.25
2022-11-02T13:56:27.458Z,17.48
2022-11-02T14:02:34.054Z,14.48
2022-11-02T14:08:40.927Z,13.90
2022-11-02T14:14:43.377Z,19.80
2022-11-02T14:20:49.624Z,16.23
2022-11-02T14:26:57.410Z,15.55
2022-11-02T14:33:12.929Z,17.20
2022-11-02T14:39:56.333Z,16.10
2022-11-02T14:46:13.674Z,17.48
2022-11-02T14:52:16.150Z,20.35
2022-11-02T14:58:24.280Z,17.90
2022-11-02T15:04:27.070Z,17.58
2022-11-02T15:10:32.131Z,19.42
2022-11-02T15:16:41.691Z,20.08
2022-11-02T15:23:26.502Z,20.08
2022-11-02T15:29:37.256Z,22.35
2022-11-02T15:35:39.751Z,17.88
2022-11-02T15:41:41.931Z,19.80
2022-11-02T15:48:05.635Z,19.92
2022-11-02T15:54:52.558Z,17.77
2022-11-02T16:01:06.721Z,16.48
2022-11-02T16:07:11.461Z,13.95
2022-11-02T16:13:19.666Z,14.73
2022-11-02T16:19:22.464Z,14.07
2022-11-02T16:25:35.225Z,14.70
2022-11-02T16:31:41.146Z,14.82
2022-11-02T16:43:47.008Z,14.30
2022-11-02T16:49:51.777Z,14.38
2022-11-02T16:55:59.575Z,17.83
2022-11-02T17:02:04.000Z,14.02
2022-11-02T17:08:09.768Z,13.68
2022-11-02T17:14:12.164Z,14.40
2022-11-02T17:20:17.442Z,14.45
2022-11-02T17:26:22.589Z,13.52
2022-11-02T17:32:25.337Z,12.32
2022-11-02T17:38:27.930Z,14.73
2022-11-02T17:44:29.850Z,19.55
2022-11-02T17:50:33.329Z,16.40
2022-11-02T17:56:35.474Z,17.13
2022-11-02T18:02:37.821Z,15.55
2022-11-02T18:08:58.563Z,13.93
2022-11-02T18:15:00.728Z,14.60
2022-11-02T18:21:02.744Z,18.35
2022-11-02T18:27:04.761Z,18.17
2022-11-02T18:33:12.206Z,20.00
2022-11-02T18:39:15.557Z,21.17
2022-11-02T18:45:17.912Z,20.02
2022-11-02T18:51:19.990Z,19.50
2022-11-02T18:57:27.068Z,15.68
2022-11-02T19:03:30.422Z,14.73
2022-11-02T19:09:33.659Z,17.55
2022-11-02T19:15:41.298Z,15.02
2022-11-02T19:21:44.521Z,13.82
2022-11-02T19:27:46.718Z,16.03
2022-11-02T19:33:48.864Z,16.40
2022-11-02T19:39:51.149Z,15.82
2022-11-02T19:45:53.206Z,15.97
2022-11-02T19:51:55.189Z,17.43
2022-11-02T19:57:57.123Z,13.87
2022-11-02T20:03:59.985Z,14.50
2022-11-02T20:10:02.039Z,17.05
2022-11-02T20:16:04.986Z,17.70
2022-11-02T20:22:06.981Z,15.10
2022-11-02T20:28:09.075Z,15.80
2022-11-02T20:34:13.265Z,14.00
2022-11-02T20:40:16.191Z,13.77
2022-11-02T20:46:38.925Z,14.68
2022-11-02T20:52:42.304Z,15.32
2022-11-02T20:58:49.973Z,13.70
2022-11-02T21:04:55.041Z,14.13
2022-11-02T21:11:04.486Z,15.00
2022-11-02T21:17:07.847Z,14.75
2022-11-02T21:23:10.566Z,14.60
2022-11-02T21:29:12.965Z,13.15
2022-11-02T21:35:15.397Z,13.25
2022-11-02T21:47:37.106Z,12.30
2022-11-02T21:53:41.527Z,12.63
2022-11-02T21:59:43.629Z,12.85
2022-11-02T22:05:55.653Z,11.67
2022-11-02T22:12:16.725Z,11.70
2022-11-02T22:18:18.720Z,10.73
2022-11-02T22:24:21.900Z,12.33
2022-11-02T22:30:24.737Z,10.23
2022-11-02T22:36:30.012Z,10.27
2022-11-02T22:42:32.024Z,11.23
2022-11-02T22:48:35.854Z,12.60
2022-11-02T22:54:38.255Z,11.98
2022-11-02T23:00:40.345Z,11.48
2022-11-02T23:06:42.371Z,11.57
2022-11-02T23:12:44.535Z,11.10
2022-11-02T23:19:05.641Z,10.15
2022-11-02T23:25:20.232Z,9.63
2022-11-02T23:31:40.603Z,9.88
2022-11-02T23:37:43.789Z,11.63
2022-11-02T23:43:46.613Z,11.55
2022-11-02T23:56:11.208Z,11.57
